sensor_id;sensor_type;location;lat;lon;timestamp;temperature;humidity
64654;DHT22;51065;48.884;12.598;2023-12-20T00:00:22;2.40;99.90
64654;DHT22;51065;48.884;12.598;2023-12-20T00:02:47;2.40;99.90
64654;DHT22;51065;48.884;12.598;2023-12-20T00:05:14;2.40;99.90
64654;DHT22;51065;48.884;12.598;2023-12-20T00:07:39;2.40;99.90
64654;DHT22;51065;48.884;12.598;2023-12-20T00:10:05;2.50;99.90
64654;DHT22;51065;48.884;12.598;2023-12-20T00:12:31;2.50;99.90
64654;DHT22;51065;48.884;12.598;2023-12-20T00:15:00;2.50;99.90
64654;DHT22;51065;48.884;12.598;2023-12-20T00:17:25;2.50;99.90
64654;DHT22;51065;48.884;12.598;2023-12-20T00:19:51;2.50;99.90
64654;DHT22;51065;48.884;12.598;2023-12-20T00:22:17;2.50;99.90
64654;DHT22;51065;48.884;12.598;2023-12-20T00:24:42;2.50;98.20
64654;DHT22;51065;48.884;12.598;2023-12-20T00:27:08;2.60;95.50
64654;DHT22;51065;48.884;12.598;2023-12-20T00:29:33;2.50;89.90
64654;DHT22;51065;48.884;12.598;2023-12-20T00:31:59;2.50;72.10
64654;DHT22;51065;48.884;12.598;2023-12-20T00:34:24;2.60;50.90
64654;DHT22;51065;48.884;12.598;2023-12-20T00:36:50;2.60;28.00
64654;DHT22;51065;48.884;12.598;2023-12-20T00:39:15;2.60;10.10
64654;DHT22;51065;48.884;12.598;2023-12-20T00:41:41;2.60;1.00
64654;DHT22;51065;48.884;12.598;2023-12-20T00:44:06;2.60;1.00
64654;DHT22;51065;48.884;12.598;2023-12-20T00:46:32;2.70;1.00
64654;DHT22;51065;48.884;12.598;2023-12-20T00:48:57;2.70;1.00
64654;DHT22;51065;48.884;12.598;2023-12-20T00:51:23;2.70;1.00
64654;DHT22;51065;48.884;12.598;2023-12-20T00:53:50;2.70;1.00
64654;DHT22;51065;48.884;12.598;2023-12-20T00:56:16;2.70;1.00
64654;DHT22;51065;48.884;12.598;2023-12-20T00:58:41;2.70;1.00
64654;DHT22;51065;48.884;12.598;2023-12-20T01:01:07;2.70;1.00
64654;DHT22;51065;48.884;12.598;2023-12-20T01:03:32;2.70;1.00
64654;DHT22;51065;48.884;12.598;2023-12-20T01:05:58;2.70;1.00
64654;DHT22;51065;48.884;12.598;2023-12-20T01:08:23;2.70;1.00
64654;DHT22;51065;48.884;12.598;2023-12-20T01:10:49;2.70;1.00
64654;DHT22;51065;48.884;12.598;2023-12-20T01:13:14;2.70;1.00
64654;DHT22;51065;48.884;12.598;2023-12-20T01:15:40;2.70;1.00
64654;DHT22;51065;48.884;12.598;2023-12-20T01:18:06;2.70;1.00
64654;DHT22;51065;48.884;12.598;2023-12-20T01:20:31;2.70;1.00
64654;DHT22;51065;48.884;12.598;2023-12-20T01:22:57;2.70;1.00
64654;DHT22;51065;48.884;12.598;2023-12-20T01:25:22;2.70;1.00
64654;DHT22;51065;48.884;12.598;2023-12-20T01:27:48;2.70;1.00
64654;DHT22;51065;48.884;12.598;2023-12-20T01:30:14;2.70;1.00
64654;DHT22;51065;48.884;12.598;2023-12-20T01:32:40;2.70;99.90
64654;DHT22;51065;48.884;12.598;2023-12-20T01:35:06;2.70;99.90
64654;DHT22;51065;48.884;12.598;2023-12-20T01:37:31;2.70;99.90
64654;DHT22;51065;48.884;12.598;2023-12-20T01:39:57;2.70;99.90
64654;DHT22;51065;48.884;12.598;2023-12-20T01:42:24;2.70;99.90
64654;DHT22;51065;48.884;12.598;2023-12-20T01:44:49;2.70;99.90
64654;DHT22;51065;48.884;12.598;2023-12-20T01:47:15;2.70;99.90
64654;DHT22;51065;48.884;12.598;2023-12-20T01:49:40;2.70;99.90
64654;DHT22;51065;48.884;12.598;2023-12-20T01:52:07;2.70;99.90
64654;DHT22;51065;48.884;12.598;2023-12-20T01:54:34;2.70;99.90
64654;DHT22;51065;48.884;12.598;2023-12-20T01:57:00;2.70;1.00
64654;DHT22;51065;48.884;12.598;2023-12-20T01:59:26;2.60;1.00
64654;DHT22;51065;48.884;12.598;2023-12-20T02:01:51;2.60;1.00
64654;DHT22;51065;48.884;12.598;2023-12-20T02:04:17;2.60;1.00
64654;DHT22;51065;48.884;12.598;2023-12-20T02:06:43;2.60;1.00
64654;DHT22;51065;48.884;12.598;2023-12-20T02:09:11;2.60;1.00
64654;DHT22;51065;48.884;12.598;2023-12-20T02:11:38;2.60;1.00
64654;DHT22;51065;48.884;12.598;2023-12-20T02:14:03;2.60;1.00
64654;DHT22;51065;48.884;12.598;2023-12-20T02:16:29;2.50;1.00
64654;DHT22;51065;48.884;12.598;2023-12-20T02:18:55;2.60;1.00
64654;DHT22;51065;48.884;12.598;2023-12-20T02:21:25;2.60;1.00
64654;DHT22;51065;48.884;12.598;2023-12-20T02:23:50;2.50;1.00
64654;DHT22;51065;48.884;12.598;2023-12-20T02:26:16;2.50;1.00
64654;DHT22;51065;48.884;12.598;2023-12-20T02:28:43;2.50;1.00
64654;DHT22;51065;48.884;12.598;2023-12-20T02:31:09;2.50;1.00
64654;DHT22;51065;48.884;12.598;2023-12-20T02:33:35;2.50;8.60
64654;DHT22;51065;48.884;12.598;2023-12-20T02:36:01;2.50;17.30
64654;DHT22;51065;48.884;12.598;2023-12-20T02:38:27;2.50;24.80
64654;DHT22;51065;48.884;12.598;2023-12-20T02:40:52;2.40;32.10
64654;DHT22;51065;48.884;12.598;2023-12-20T02:43:18;2.50;42.10
64654;DHT22;51065;48.884;12.598;2023-12-20T02:45:44;2.40;51.30
64654;DHT22;51065;48.884;12.598;2023-12-20T02:48:09;2.40;61.70
64654;DHT22;51065;48.884;12.598;2023-12-20T02:50:35;2.40;71.20
64654;DHT22;51065;48.884;12.598;2023-12-20T02:53:00;2.40;79.80
64654;DHT22;51065;48.884;12.598;2023-12-20T02:55:26;2.40;87.10
64654;DHT22;51065;48.884;12.598;2023-12-20T02:57:51;2.40;92.40
64654;DHT22;51065;48.884;12.598;2023-12-20T03:00:17;2.50;96.20
64654;DHT22;51065;48.884;12.598;2023-12-20T03:02:43;2.40;99.30
64654;DHT22;51065;48.884;12.598;2023-12-20T03:05:08;2.50;99.90
64654;DHT22;51065;48.884;12.598;2023-12-20T03:07:34;2.40;99.90
64654;DHT22;51065;48.884;12.598;2023-12-20T03:10:01;2.50;99.90
64654;DHT22;51065;48.884;12.598;2023-12-20T03:12:27;2.50;99.90
64654;DHT22;51065;48.884;12.598;2023-12-20T03:14:52;2.40;99.90
64654;DHT22;51065;48.884;12.598;2023-12-20T03:17:18;2.50;99.90
64654;DHT22;51065;48.884;12.598;2023-12-20T03:19:44;2.40;99.90
64654;DHT22;51065;48.884;12.598;2023-12-20T03:22:10;2.40;99.90
64654;DHT22;51065;48.884;12.598;2023-12-20T03:24:36;2.40;99.90
64654;DHT22;51065;48.884;12.598;2023-12-20T03:27:01;2.40;99.90
64654;DHT22;51065;48.884;12.598;2023-12-20T03:29:27;2.40;99.90
64654;DHT22;51065;48.884;12.598;2023-12-20T03:31:52;2.50;99.90
64654;DHT22;51065;48.884;12.598;2023-12-20T03:34:18;2.50;99.90
64654;DHT22;51065;48.884;12.598;2023-12-20T03:36:44;2.40;99.90
64654;DHT22;51065;48.884;12.598;2023-12-20T03:39:09;2.40;99.90
64654;DHT22;51065;48.884;12.598;2023-12-20T03:41:35;2.40;99.90
64654;DHT22;51065;48.884;12.598;2023-12-20T03:44:01;2.40;99.90
64654;DHT22;51065;48.884;12.598;2023-12-20T03:46:26;2.40;99.90
64654;DHT22;51065;48.884;12.598;2023-12-20T03:48:52;2.40;99.90
64654;DHT22;51065;48.884;12.598;2023-12-20T03:51:17;2.40;99.90
64654;DHT22;51065;48.884;12.598;2023-12-20T03:53:43;2.30;99.90
64654;DHT22;51065;48.884;12.598;2023-12-20T03:56:08;2.30;99.90
64654;DHT22;51065;48.884;12.598;2023-12-20T03:58:34;2.30;99.90
64654;DHT22;51065;48.884;12.598;2023-12-20T04:00:59;2.30;99.90
64654;DHT22;51065;48.884;12.598;2023-12-20T04:03:25;2.30;99.90
64654;DHT22;51065;48.884;12.598;2023-12-20T04:05:50;2.20;99.90
64654;DHT22;51065;48.884;12.598;2023-12-20T04:08:16;2.20;99.90
64654;DHT22;51065;48.884;12.598;2023-12-20T04:10:41;2.20;99.90
64654;DHT22;51065;48.884;12.598;2023-12-20T04:13:07;2.20;99.90
64654;DHT22;51065;48.884;12.598;2023-12-20T04:15:32;2.20;99.90
64654;DHT22;51065;48.884;12.598;2023-12-20T04:17:58;2.30;99.90
64654;DHT22;51065;48.884;12.598;2023-12-20T04:20:24;2.30;99.90
64654;DHT22;51065;48.884;12.598;2023-12-20T04:22:49;2.30;99.90
64654;DHT22;51065;48.884;12.598;2023-12-20T04:25:15;2.30;99.90
64654;DHT22;51065;48.884;12.598;2023-12-20T04:27:40;2.40;99.90
64654;DHT22;51065;48.884;12.598;2023-12-20T04:30:06;2.30;99.90
64654;DHT22;51065;48.884;12.598;2023-12-20T04:32:33;2.40;99.90
64654;DHT22;51065;48.884;12.598;2023-12-20T04:34:58;2.40;99.90
64654;DHT22;51065;48.884;12.598;2023-12-20T04:37:24;2.40;99.90
64654;DHT22;51065;48.884;12.598;2023-12-20T04:39:50;2.40;99.90
64654;DHT22;51065;48.884;12.598;2023-12-20T04:42:16;2.40;99.90
64654;DHT22;51065;48.884;12.598;2023-12-20T04:44:41;2.40;99.90
64654;DHT22;51065;48.884;12.598;2023-12-20T04:47:09;2.40;99.90
64654;DHT22;51065;48.884;12.598;2023-12-20T04:49:34;2.40;99.90
64654;DHT22;51065;48.884;12.598;2023-12-20T04:52:00;2.40;99.90
64654;DHT22;51065;48.884;12.598;2023-12-20T04:54:25;2.40;99.90
64654;DHT22;51065;48.884;12.598;2023-12-20T04:56:51;2.40;99.90
64654;DHT22;51065;48.884;12.598;2023-12-20T04:59:16;2.40;99.90
64654;DHT22;51065;48.884;12.598;2023-12-20T05:01:42;2.40;99.90
64654;DHT22;51065;48.884;12.598;2023-12-20T05:04:07;2.40;99.90
64654;DHT22;51065;48.884;12.598;2023-12-20T05:06:33;2.40;99.90
64654;DHT22;51065;48.884;12.598;2023-12-20T05:08:59;2.40;99.90
64654;DHT22;51065;48.884;12.598;2023-12-20T05:11:24;2.40;99.90
64654;DHT22;51065;48.884;12.598;2023-12-20T05:13:50;2.40;99.90
64654;DHT22;51065;48.884;12.598;2023-12-20T05:16:15;2.40;99.90
64654;DHT22;51065;48.884;12.598;2023-12-20T05:18:43;2.40;99.90
64654;DHT22;51065;48.884;12.598;2023-12-20T05:21:09;2.40;99.90
64654;DHT22;51065;48.884;12.598;2023-12-20T05:23:34;2.40;99.90
64654;DHT22;51065;48.884;12.598;2023-12-20T05:26:00;2.40;99.90
64654;DHT22;51065;48.884;12.598;2023-12-20T05:28:25;2.40;99.90
64654;DHT22;51065;48.884;12.598;2023-12-20T05:30:51;2.50;99.90
64654;DHT22;51065;48.884;12.598;2023-12-20T05:33:17;2.50;99.90
64654;DHT22;51065;48.884;12.598;2023-12-20T05:35:42;2.50;99.90
64654;DHT22;51065;48.884;12.598;2023-12-20T05:38:08;2.50;99.90
64654;DHT22;51065;48.884;12.598;2023-12-20T05:40:33;2.50;99.90
64654;DHT22;51065;48.884;12.598;2023-12-20T05:42:59;2.50;99.90
64654;DHT22;51065;48.884;12.598;2023-12-20T05:45:24;2.50;99.90
64654;DHT22;51065;48.884;12.598;2023-12-20T05:47:50;2.60;99.90
64654;DHT22;51065;48.884;12.598;2023-12-20T05:50:15;2.80;99.90
64654;DHT22;51065;48.884;12.598;2023-12-20T05:52:41;2.90;99.90
64654;DHT22;51065;48.884;12.598;2023-12-20T05:55:07;3.10;99.90
64654;DHT22;51065;48.884;12.598;2023-12-20T05:57:32;3.20;99.90
64654;DHT22;51065;48.884;12.598;2023-12-20T05:59:58;3.30;99.90
64654;DHT22;51065;48.884;12.598;2023-12-20T06:02:23;3.40;99.90
64654;DHT22;51065;48.884;12.598;2023-12-20T06:04:49;3.50;99.90
64654;DHT22;51065;48.884;12.598;2023-12-20T06:07:16;3.60;99.90
64654;DHT22;51065;48.884;12.598;2023-12-20T06:09:42;3.60;99.90
64654;DHT22;51065;48.884;12.598;2023-12-20T06:12:08;3.60;99.90
64654;DHT22;51065;48.884;12.598;2023-12-20T06:14:34;3.70;99.90
64654;DHT22;51065;48.884;12.598;2023-12-20T06:17:00;3.70;99.90
64654;DHT22;51065;48.884;12.598;2023-12-20T06:19:26;3.70;99.90
64654;DHT22;51065;48.884;12.598;2023-12-20T06:21:52;3.80;99.90
64654;DHT22;51065;48.884;12.598;2023-12-20T06:24:17;3.80;99.90
64654;DHT22;51065;48.884;12.598;2023-12-20T06:26:43;3.90;99.90
64654;DHT22;51065;48.884;12.598;2023-12-20T06:29:09;3.80;99.90
64654;DHT22;51065;48.884;12.598;2023-12-20T06:31:34;3.90;99.90
64654;DHT22;51065;48.884;12.598;2023-12-20T06:34:00;3.90;99.90
64654;DHT22;51065;48.884;12.598;2023-12-20T06:36:26;3.90;99.90
64654;DHT22;51065;48.884;12.598;2023-12-20T06:38:52;3.90;99.90
64654;DHT22;51065;48.884;12.598;2023-12-20T06:41:17;3.90;99.90
64654;DHT22;51065;48.884;12.598;2023-12-20T06:43:43;4.00;99.90
64654;DHT22;51065;48.884;12.598;2023-12-20T06:46:09;4.00;99.90
64654;DHT22;51065;48.884;12.598;2023-12-20T06:48:35;4.00;99.90
64654;DHT22;51065;48.884;12.598;2023-12-20T06:51:01;4.00;99.90
64654;DHT22;51065;48.884;12.598;2023-12-20T06:53:30;4.00;99.90
64654;DHT22;51065;48.884;12.598;2023-12-20T06:55:55;4.00;99.90
64654;DHT22;51065;48.884;12.598;2023-12-20T06:58:24;4.00;99.90
64654;DHT22;51065;48.884;12.598;2023-12-20T07:00:50;4.00;99.90
64654;DHT22;51065;48.884;12.598;2023-12-20T07:03:16;4.00;99.90
64654;DHT22;51065;48.884;12.598;2023-12-20T07:05:42;4.00;99.90
64654;DHT22;51065;48.884;12.598;2023-12-20T07:08:07;4.10;99.90
64654;DHT22;51065;48.884;12.598;2023-12-20T07:10:33;4.10;99.90
64654;DHT22;51065;48.884;12.598;2023-12-20T07:12:59;4.10;99.90
64654;DHT22;51065;48.884;12.598;2023-12-20T07:15:24;4.10;99.90
64654;DHT22;51065;48.884;12.598;2023-12-20T07:17:50;4.10;99.90
64654;DHT22;51065;48.884;12.598;2023-12-20T07:20:15;4.10;99.90
64654;DHT22;51065;48.884;12.598;2023-12-20T07:22:41;4.10;99.90
64654;DHT22;51065;48.884;12.598;2023-12-20T07:25:07;4.10;99.90
64654;DHT22;51065;48.884;12.598;2023-12-20T07:27:32;4.10;99.90
64654;DHT22;51065;48.884;12.598;2023-12-20T07:29:58;4.10;99.90
64654;DHT22;51065;48.884;12.598;2023-12-20T07:32:24;4.20;99.90
64654;DHT22;51065;48.884;12.598;2023-12-20T07:34:49;4.20;99.90
64654;DHT22;51065;48.884;12.598;2023-12-20T07:37:15;4.20;99.90
64654;DHT22;51065;48.884;12.598;2023-12-20T07:39:41;4.20;99.90
64654;DHT22;51065;48.884;12.598;2023-12-20T07:42:07;4.20;99.90
64654;DHT22;51065;48.884;12.598;2023-12-20T07:44:33;4.30;99.90
64654;DHT22;51065;48.884;12.598;2023-12-20T07:46:59;4.30;99.90
64654;DHT22;51065;48.884;12.598;2023-12-20T07:49:26;4.30;99.90
64654;DHT22;51065;48.884;12.598;2023-12-20T07:51:52;4.30;99.90
64654;DHT22;51065;48.884;12.598;2023-12-20T07:54:17;4.30;99.90
64654;DHT22;51065;48.884;12.598;2023-12-20T07:56:43;4.30;99.90
64654;DHT22;51065;48.884;12.598;2023-12-20T07:59:09;4.30;99.90
64654;DHT22;51065;48.884;12.598;2023-12-20T08:01:34;4.30;99.90
64654;DHT22;51065;48.884;12.598;2023-12-20T08:04:00;4.40;99.90
64654;DHT22;51065;48.884;12.598;2023-12-20T08:06:25;4.40;99.90
64654;DHT22;51065;48.884;12.598;2023-12-20T08:08:51;4.40;99.90
64654;DHT22;51065;48.884;12.598;2023-12-20T08:11:17;4.40;99.90
64654;DHT22;51065;48.884;12.598;2023-12-20T08:13:42;4.40;99.90
64654;DHT22;51065;48.884;12.598;2023-12-20T08:16:08;4.40;99.90
64654;DHT22;51065;48.884;12.598;2023-12-20T08:18:34;4.40;99.90
64654;DHT22;51065;48.884;12.598;2023-12-20T08:21:00;4.40;99.90
64654;DHT22;51065;48.884;12.598;2023-12-20T08:23:26;4.50;99.90
64654;DHT22;51065;48.884;12.598;2023-12-20T08:25:52;4.40;99.90
64654;DHT22;51065;48.884;12.598;2023-12-20T08:28:17;4.40;99.90
64654;DHT22;51065;48.884;12.598;2023-12-20T08:30:43;4.40;99.90
64654;DHT22;51065;48.884;12.598;2023-12-20T08:33:09;4.50;99.90
64654;DHT22;51065;48.884;12.598;2023-12-20T08:35:38;4.50;99.90
64654;DHT22;51065;48.884;12.598;2023-12-20T08:38:04;4.50;99.90
64654;DHT22;51065;48.884;12.598;2023-12-20T08:40:30;4.50;99.90
64654;DHT22;51065;48.884;12.598;2023-12-20T08:42:55;4.50;99.90
64654;DHT22;51065;48.884;12.598;2023-12-20T08:45:22;4.50;99.90
64654;DHT22;51065;48.884;12.598;2023-12-20T08:47:47;4.50;99.90
64654;DHT22;51065;48.884;12.598;2023-12-20T08:50:13;4.50;99.90
64654;DHT22;51065;48.884;12.598;2023-12-20T08:52:39;4.50;99.90
64654;DHT22;51065;48.884;12.598;2023-12-20T08:55:05;4.50;99.90
64654;DHT22;51065;48.884;12.598;2023-12-20T08:57:30;4.60;99.90
64654;DHT22;51065;48.884;12.598;2023-12-20T08:59:57;4.60;99.90
64654;DHT22;51065;48.884;12.598;2023-12-20T09:02:23;4.70;99.90
64654;DHT22;51065;48.884;12.598;2023-12-20T09:04:48;4.70;99.90
64654;DHT22;51065;48.884;12.598;2023-12-20T09:07:27;4.70;99.90
64654;DHT22;51065;48.884;12.598;2023-12-20T09:09:55;4.70;99.90
64654;DHT22;51065;48.884;12.598;2023-12-20T09:12:21;4.70;99.90
64654;DHT22;51065;48.884;12.598;2023-12-20T09:14:48;4.70;99.90
64654;DHT22;51065;48.884;12.598;2023-12-20T09:17:15;4.70;99.90
64654;DHT22;51065;48.884;12.598;2023-12-20T09:19:42;4.80;99.90
64654;DHT22;51065;48.884;12.598;2023-12-20T09:22:09;4.80;99.90
64654;DHT22;51065;48.884;12.598;2023-12-20T09:24:34;4.90;99.90
64654;DHT22;51065;48.884;12.598;2023-12-20T09:27:00;4.90;99.90
64654;DHT22;51065;48.884;12.598;2023-12-20T09:29:25;4.90;99.90
64654;DHT22;51065;48.884;12.598;2023-12-20T09:31:51;5.00;99.90
64654;DHT22;51065;48.884;12.598;2023-12-20T09:34:17;5.10;99.90
64654;DHT22;51065;48.884;12.598;2023-12-20T09:36:42;5.20;99.90
64654;DHT22;51065;48.884;12.598;2023-12-20T09:39:14;5.20;99.90
64654;DHT22;51065;48.884;12.598;2023-12-20T09:41:44;5.30;99.90
64654;DHT22;51065;48.884;12.598;2023-12-20T09:44:16;5.20;99.90
64654;DHT22;51065;48.884;12.598;2023-12-20T09:46:45;5.20;99.90
64654;DHT22;51065;48.884;12.598;2023-12-20T09:49:15;5.10;99.90
64654;DHT22;51065;48.884;12.598;2023-12-20T09:51:42;5.20;99.90
64654;DHT22;51065;48.884;12.598;2023-12-20T09:54:08;5.20;99.90
64654;DHT22;51065;48.884;12.598;2023-12-20T09:56:35;5.20;99.90
64654;DHT22;51065;48.884;12.598;2023-12-20T09:59:02;5.30;99.90
64654;DHT22;51065;48.884;12.598;2023-12-20T10:01:28;5.30;90.50
64654;DHT22;51065;48.884;12.598;2023-12-20T10:03:55;5.30;62.10
64654;DHT22;51065;48.884;12.598;2023-12-20T10:06:21;5.30;6.60
64654;DHT22;51065;48.884;12.598;2023-12-20T10:08:47;5.30;1.00
64654;DHT22;51065;48.884;12.598;2023-12-20T10:11:13;5.40;1.00
64654;DHT22;51065;48.884;12.598;2023-12-20T10:13:40;5.30;1.00
64654;DHT22;51065;48.884;12.598;2023-12-20T10:16:09;5.30;1.00
64654;DHT22;51065;48.884;12.598;2023-12-20T10:18:34;5.30;1.00
64654;DHT22;51065;48.884;12.598;2023-12-20T10:21:01;5.30;1.00
64654;DHT22;51065;48.884;12.598;2023-12-20T10:23:26;5.30;99.90
64654;DHT22;51065;48.884;12.598;2023-12-20T10:25:59;5.40;99.90
64654;DHT22;51065;48.884;12.598;2023-12-20T10:28:25;5.60;99.90
64654;DHT22;51065;48.884;12.598;2023-12-20T10:30:54;5.80;99.90
64654;DHT22;51065;48.884;12.598;2023-12-20T10:33:31;5.90;99.90
64654;DHT22;51065;48.884;12.598;2023-12-20T10:35:57;6.10;99.90
64654;DHT22;51065;48.884;12.598;2023-12-20T10:38:23;6.10;81.60
64654;DHT22;51065;48.884;12.598;2023-12-20T10:40:54;6.00;1.00
64654;DHT22;51065;48.884;12.598;2023-12-20T10:43:19;6.00;7.80
64654;DHT22;51065;48.884;12.598;2023-12-20T10:45:45;6.10;1.00
64654;DHT22;51065;48.884;12.598;2023-12-20T10:48:11;6.10;1.00
64654;DHT22;51065;48.884;12.598;2023-12-20T10:50:38;6.10;1.00
64654;DHT22;51065;48.884;12.598;2023-12-20T10:53:04;6.00;1.00
64654;DHT22;51065;48.884;12.598;2023-12-20T10:55:30;6.10;1.00
64654;DHT22;51065;48.884;12.598;2023-12-20T10:58:07;6.20;1.00
64654;DHT22;51065;48.884;12.598;2023-12-20T11:00:41;6.30;99.90
64654;DHT22;51065;48.884;12.598;2023-12-20T11:03:10;6.20;99.90
64654;DHT22;51065;48.884;12.598;2023-12-20T11:05:42;6.30;99.90
64654;DHT22;51065;48.884;12.598;2023-12-20T11:08:20;6.40;99.90
64654;DHT22;51065;48.884;12.598;2023-12-20T11:13:20;6.50;32.20
64654;DHT22;51065;48.884;12.598;2023-12-20T11:15:48;6.40;99.90
64654;DHT22;51065;48.884;12.598;2023-12-20T11:18:14;6.40;99.90
64654;DHT22;51065;48.884;12.598;2023-12-20T11:20:41;6.40;99.90
64654;DHT22;51065;48.884;12.598;2023-12-20T11:23:08;6.40;98.90
64654;DHT22;51065;48.884;12.598;2023-12-20T11:25:54;6.40;1.00
64654;DHT22;51065;48.884;12.598;2023-12-20T11:28:22;6.40;1.00
64654;DHT22;51065;48.884;12.598;2023-12-20T11:33:32;6.30;1.00
64654;DHT22;51065;48.884;12.598;2023-12-20T11:36:00;6.20;1.00
64654;DHT22;51065;48.884;12.598;2023-12-20T11:38:26;6.30;99.90
64654;DHT22;51065;48.884;12.598;2023-12-20T11:40:54;6.40;1.00
64654;DHT22;51065;48.884;12.598;2023-12-20T11:43:35;6.40;1.00
64654;DHT22;51065;48.884;12.598;2023-12-20T11:46:05;6.70;99.90
64654;DHT22;51065;48.884;12.598;2023-12-20T11:48:31;7.00;1.00
64654;DHT22;51065;48.884;12.598;2023-12-20T11:50:57;7.00;99.90
64654;DHT22;51065;48.884;12.598;2023-12-20T11:53:23;7.00;99.90
64654;DHT22;51065;48.884;12.598;2023-12-20T11:55:49;6.90;99.90
64654;DHT22;51065;48.884;12.598;2023-12-20T11:58:15;6.90;99.90
64654;DHT22;51065;48.884;12.598;2023-12-20T12:00:44;6.90;98.90
64654;DHT22;51065;48.884;12.598;2023-12-20T12:03:10;7.30;1.00
64654;DHT22;51065;48.884;12.598;2023-12-20T12:05:35;7.60;99.90
64654;DHT22;51065;48.884;12.598;2023-12-20T12:08:02;7.60;17.70
64654;DHT22;51065;48.884;12.598;2023-12-20T12:10:29;7.60;15.10
64654;DHT22;51065;48.884;12.598;2023-12-20T12:12:54;7.50;1.00
64654;DHT22;51065;48.884;12.598;2023-12-20T12:15:21;7.20;99.90
64654;DHT22;51065;48.884;12.598;2023-12-20T12:17:56;6.90;99.90
64654;DHT22;51065;48.884;12.598;2023-12-20T12:20:23;6.90;99.90
64654;DHT22;51065;48.884;12.598;2023-12-20T12:23:05;7.80;1.00
64654;DHT22;51065;48.884;12.598;2023-12-20T12:25:32;8.20;99.90
64654;DHT22;51065;48.884;12.598;2023-12-20T12:27:58;8.90;99.90
64654;DHT22;51065;48.884;12.598;2023-12-20T12:30:25;9.30;1.00
64654;DHT22;51065;48.884;12.598;2023-12-20T12:32:52;10.00;99.90
64654;DHT22;51065;48.884;12.598;2023-12-20T12:35:18;10.20;99.90
64654;DHT22;51065;48.884;12.598;2023-12-20T12:37:44;10.10;99.90
64654;DHT22;51065;48.884;12.598;2023-12-20T12:40:14;10.10;99.90
64654;DHT22;51065;48.884;12.598;2023-12-20T12:42:40;10.00;1.00
64654;DHT22;51065;48.884;12.598;2023-12-20T12:45:06;10.10;99.90
64654;DHT22;51065;48.884;12.598;2023-12-20T12:47:33;10.10;99.90
64654;DHT22;51065;48.884;12.598;2023-12-20T12:49:59;9.20;93.90
64654;DHT22;51065;48.884;12.598;2023-12-20T12:52:24;8.30;99.90
64654;DHT22;51065;48.884;12.598;2023-12-20T12:54:51;7.50;1.00
64654;DHT22;51065;48.884;12.598;2023-12-20T12:57:17;7.20;99.90
64654;DHT22;51065;48.884;12.598;2023-12-20T12:59:43;6.90;99.90
64654;DHT22;51065;48.884;12.598;2023-12-20T13:02:11;6.70;1.00
64654;DHT22;51065;48.884;12.598;2023-12-20T13:04:37;6.60;1.00
64654;DHT22;51065;48.884;12.598;2023-12-20T13:07:02;6.60;93.40
64654;DHT22;51065;48.884;12.598;2023-12-20T13:09:28;6.50;99.90
64654;DHT22;51065;48.884;12.598;2023-12-20T13:11:53;6.40;1.00
64654;DHT22;51065;48.884;12.598;2023-12-20T13:14:19;6.40;1.00
64654;DHT22;51065;48.884;12.598;2023-12-20T13:16:45;6.30;21.20
64654;DHT22;51065;48.884;12.598;2023-12-20T13:19:11;6.30;1.00
64654;DHT22;51065;48.884;12.598;2023-12-20T13:21:37;6.30;99.90
64654;DHT22;51065;48.884;12.598;2023-12-20T13:24:03;6.30;99.90
64654;DHT22;51065;48.884;12.598;2023-12-20T13:26:29;6.30;99.90
64654;DHT22;51065;48.884;12.598;2023-12-20T13:28:55;6.40;99.90
64654;DHT22;51065;48.884;12.598;2023-12-20T13:31:21;6.40;99.90
64654;DHT22;51065;48.884;12.598;2023-12-20T13:33:47;6.50;99.90
64654;DHT22;51065;48.884;12.598;2023-12-20T13:36:12;6.50;88.90
64654;DHT22;51065;48.884;12.598;2023-12-20T13:38:38;6.50;99.90
64654;DHT22;51065;48.884;12.598;2023-12-20T13:41:04;6.40;99.90
64654;DHT22;51065;48.884;12.598;2023-12-20T13:43:31;6.40;99.90
64654;DHT22;51065;48.884;12.598;2023-12-20T13:46:00;6.30;99.90
64654;DHT22;51065;48.884;12.598;2023-12-20T13:48:26;6.30;99.90
64654;DHT22;51065;48.884;12.598;2023-12-20T13:50:55;6.20;99.90
64654;DHT22;51065;48.884;12.598;2023-12-20T13:53:20;6.10;99.90
64654;DHT22;51065;48.884;12.598;2023-12-20T13:55:46;6.10;99.90
64654;DHT22;51065;48.884;12.598;2023-12-20T13:58:12;6.10;99.90
64654;DHT22;51065;48.884;12.598;2023-12-20T14:00:37;6.10;99.90
64654;DHT22;51065;48.884;12.598;2023-12-20T14:03:06;6.10;99.90
64654;DHT22;51065;48.884;12.598;2023-12-20T14:05:32;6.10;1.00
64654;DHT22;51065;48.884;12.598;2023-12-20T14:07:58;6.10;99.90
64654;DHT22;51065;48.884;12.598;2023-12-20T14:10:24;6.10;1.00
64654;DHT22;51065;48.884;12.598;2023-12-20T14:12:54;6.00;99.90
64654;DHT22;51065;48.884;12.598;2023-12-20T14:15:19;6.00;99.90
64654;DHT22;51065;48.884;12.598;2023-12-20T14:17:45;5.90;1.00
64654;DHT22;51065;48.884;12.598;2023-12-20T14:20:11;5.90;1.00
64654;DHT22;51065;48.884;12.598;2023-12-20T14:22:38;5.80;96.40
64654;DHT22;51065;48.884;12.598;2023-12-20T14:25:12;5.70;1.00
64654;DHT22;51065;48.884;12.598;2023-12-20T14:27:39;5.60;26.10
64654;DHT22;51065;48.884;12.598;2023-12-20T14:30:05;5.50;99.90
64654;DHT22;51065;48.884;12.598;2023-12-20T14:32:34;5.50;99.90
64654;DHT22;51065;48.884;12.598;2023-12-20T14:34:59;5.50;99.90
64654;DHT22;51065;48.884;12.598;2023-12-20T14:37:25;5.60;99.90
64654;DHT22;51065;48.884;12.598;2023-12-20T14:39:50;5.60;48.30
64654;DHT22;51065;48.884;12.598;2023-12-20T14:42:16;5.60;99.90
64654;DHT22;51065;48.884;12.598;2023-12-20T14:44:42;5.60;26.60
64654;DHT22;51065;48.884;12.598;2023-12-20T14:47:08;5.60;24.70
64654;DHT22;51065;48.884;12.598;2023-12-20T14:49:34;5.60;99.90
64654;DHT22;51065;48.884;12.598;2023-12-20T14:52:01;5.60;18.60
64654;DHT22;51065;48.884;12.598;2023-12-20T14:54:27;5.70;61.60
64654;DHT22;51065;48.884;12.598;2023-12-20T14:56:52;5.60;99.90
64654;DHT22;51065;48.884;12.598;2023-12-20T14:59:18;5.60;99.90
64654;DHT22;51065;48.884;12.598;2023-12-20T15:01:44;5.60;99.90
64654;DHT22;51065;48.884;12.598;2023-12-20T15:04:10;5.60;95.20
64654;DHT22;51065;48.884;12.598;2023-12-20T15:06:36;5.50;99.90
64654;DHT22;51065;48.884;12.598;2023-12-20T15:09:02;5.50;99.90
64654;DHT22;51065;48.884;12.598;2023-12-20T15:11:33;5.30;1.00
64654;DHT22;51065;48.884;12.598;2023-12-20T15:14:01;5.20;99.90
64654;DHT22;51065;48.884;12.598;2023-12-20T15:16:27;5.10;1.00
64654;DHT22;51065;48.884;12.598;2023-12-20T15:18:53;5.20;99.90
64654;DHT22;51065;48.884;12.598;2023-12-20T15:21:19;5.20;99.90
64654;DHT22;51065;48.884;12.598;2023-12-20T15:23:46;5.20;99.90
64654;DHT22;51065;48.884;12.598;2023-12-20T15:26:21;5.10;1.00
64654;DHT22;51065;48.884;12.598;2023-12-20T15:28:50;5.10;1.00
64654;DHT22;51065;48.884;12.598;2023-12-20T15:31:15;5.20;99.90